sensor_id;sensor_type;location;lat;lon;timestamp;pressure;altitude;pressure_sealevel;temperature;humidity
26823;BME280;14852;51.910;8.878;2023-05-19T00:01:41;100818.03;;;10.28;46.40
26823;BME280;14852;51.910;8.878;2023-05-19T00:04:09;100813.06;;;10.22;46.34
26823;BME280;14852;51.910;8.878;2023-05-19T00:06:37;100812.22;;;10.22;46.52
26823;BME280;14852;51.910;8.878;2023-05-19T00:09:05;100812.22;;;10.22;46.86
26823;BME280;14852;51.910;8.878;2023-05-19T00:11:37;100816.66;;;10.18;46.90
26823;BME280;14852;51.910;8.878;2023-05-19T00:14:06;100812.38;;;10.15;46.91
26823;BME280;14852;51.910;8.878;2023-05-19T00:16:33;100815.91;;;10.14;46.80
26823;BME280;14852;51.910;8.878;2023-05-19T00:19:01;100802.16;;;10.11;47.04
26823;BME280;14852;51.910;8.878;2023-05-19T00:21:28;100812.59;;;10.09;46.92
26823;BME280;14852;51.910;8.878;2023-05-19T00:23:54;100809.16;;;10.09;46.83
26823;BME280;14852;51.910;8.878;2023-05-19T00:26:21;100797.91;;;10.08;46.89
26823;BME280;14852;51.910;8.878;2023-05-19T00:28:57;100803.06;;;10.10;46.76
26823;BME280;14852;51.910;8.878;2023-05-19T00:31:24;100795.19;;;10.13;46.97
26823;BME280;14852;51.910;8.878;2023-05-19T00:33:49;100791.78;;;10.11;47.21
26823;BME280;14852;51.910;8.878;2023-05-19T00:36:16;100794.41;;;10.09;47.11
26823;BME280;14852;51.910;8.878;2023-05-19T00:38:42;100790.22;;;10.05;46.96
26823;BME280;14852;51.910;8.878;2023-05-19T00:41:08;100799.84;;;10.03;47.22
26823;BME280;14852;51.910;8.878;2023-05-19T00:43:33;100793.94;;;9.98;47.25
26823;BME280;14852;51.910;8.878;2023-05-19T00:45:59;100798.38;;;9.95;47.28
26823;BME280;14852;51.910;8.878;2023-05-19T00:48:25;100789.06;;;9.89;47.36
26823;BME280;14852;51.910;8.878;2023-05-19T00:50:56;100793.44;;;9.87;47.66
26823;BME280;14852;51.910;8.878;2023-05-19T00:53:26;100793.63;;;9.81;47.58
26823;BME280;14852;51.910;8.878;2023-05-19T00:55:53;100799.78;;;9.78;47.86
26823;BME280;14852;51.910;8.878;2023-05-19T00:58:19;100801.63;;;9.75;48.01
26823;BME280;14852;51.910;8.878;2023-05-19T01:00:44;100802.56;;;9.72;47.76
26823;BME280;14852;51.910;8.878;2023-05-19T01:03:10;100799.28;;;9.67;48.03
26823;BME280;14852;51.910;8.878;2023-05-19T01:05:41;100801.88;;;9.67;47.98
26823;BME280;14852;51.910;8.878;2023-05-19T01:08:09;100796.78;;;9.64;47.84
26823;BME280;14852;51.910;8.878;2023-05-19T01:10:35;100796.03;;;9.61;48.20
26823;BME280;14852;51.910;8.878;2023-05-19T01:13:05;100797.88;;;9.57;48.30
26823;BME280;14852;51.910;8.878;2023-05-19T01:16:10;100797.81;;;9.59;48.49
26823;BME280;14852;51.910;8.878;2023-05-19T01:18:59;100806.44;;;9.59;48.28
26823;BME280;14852;51.910;8.878;2023-05-19T01:24:41;100806.34;;;9.62;47.88
26823;BME280;14852;51.910;8.878;2023-05-19T01:27:46;100807.34;;;9.58;48.25
26823;BME280;14852;51.910;8.878;2023-05-19T01:30:41;100799.69;;;9.55;47.82
26823;BME280;14852;51.910;8.878;2023-05-19T01:33:12;100802.41;;;9.51;47.81
26823;BME280;14852;51.910;8.878;2023-05-19T01:35:42;100804.41;;;9.42;47.99
26823;BME280;14852;51.910;8.878;2023-05-19T01:38:10;100807.16;;;9.36;48.08
26823;BME280;14852;51.910;8.878;2023-05-19T01:40:39;100805.53;;;9.34;48.40
26823;BME280;14852;51.910;8.878;2023-05-19T01:43:10;100808.88;;;9.37;48.47
26823;BME280;14852;51.910;8.878;2023-05-19T01:45:37;100814.91;;;9.38;48.56
26823;BME280;14852;51.910;8.878;2023-05-19T01:48:05;100806.22;;;9.39;48.14
26823;BME280;14852;51.910;8.878;2023-05-19T01:50:32;100802.69;;;9.41;48.21
26823;BME280;14852;51.910;8.878;2023-05-19T01:52:59;100812.22;;;9.41;48.24
26823;BME280;14852;51.910;8.878;2023-05-19T01:55:26;100807.97;;;9.38;48.31
26823;BME280;14852;51.910;8.878;2023-05-19T02:04:42;100811.75;;;9.28;48.56
26823;BME280;14852;51.910;8.878;2023-05-19T02:07:40;100806.75;;;9.22;48.52
26823;BME280;14852;51.910;8.878;2023-05-19T02:10:21;100812.09;;;9.16;48.33
26823;BME280;14852;51.910;8.878;2023-05-19T02:12:52;100802.91;;;9.06;48.52
26823;BME280;14852;51.910;8.878;2023-05-19T02:15:25;100798.16;;;8.91;48.87
26823;BME280;14852;51.910;8.878;2023-05-19T02:17:54;100797.63;;;8.80;49.19
26823;BME280;14852;51.910;8.878;2023-05-19T02:20:22;100797.84;;;8.72;49.38
26823;BME280;14852;51.910;8.878;2023-05-19T02:22:48;100799.59;;;8.71;49.17
26823;BME280;14852;51.910;8.878;2023-05-19T02:25:14;100789.25;;;8.70;49.32
26823;BME280;14852;51.910;8.878;2023-05-19T02:27:41;100794.53;;;8.67;49.29
26823;BME280;14852;51.910;8.878;2023-05-19T02:30:07;100789.34;;;8.67;49.36
26823;BME280;14852;51.910;8.878;2023-05-19T02:32:34;100788.41;;;8.69;49.41
26823;BME280;14852;51.910;8.878;2023-05-19T02:35:01;100787.47;;;8.72;49.23
26823;BME280;14852;51.910;8.878;2023-05-19T02:37:27;100784.94;;;8.70;49.16
26823;BME280;14852;51.910;8.878;2023-05-19T02:39:53;100789.34;;;8.67;49.43
26823;BME280;14852;51.910;8.878;2023-05-19T02:42:20;100787.75;;;8.63;49.63
26823;BME280;14852;51.910;8.878;2023-05-19T02:44:47;100784.31;;;8.62;49.47
26823;BME280;14852;51.910;8.878;2023-05-19T02:47:13;100787.78;;;8.61;49.52
26823;BME280;14852;51.910;8.878;2023-05-19T02:49:39;100787.78;;;8.61;49.71
26823;BME280;14852;51.910;8.878;2023-05-19T02:52:05;100785.22;;;8.60;49.78
26823;BME280;14852;51.910;8.878;2023-05-19T02:54:32;100783.56;;;8.57;49.63
26823;BME280;14852;51.910;8.878;2023-05-19T02:56:59;100784.44;;;8.58;49.76
26823;BME280;14852;51.910;8.878;2023-05-19T02:59:26;100782.69;;;8.58;49.63
26823;BME280;14852;51.910;8.878;2023-05-19T03:01:55;100782.59;;;8.61;49.76
26823;BME280;14852;51.910;8.878;2023-05-19T03:04:21;100776.69;;;8.56;49.88
26823;BME280;14852;51.910;8.878;2023-05-19T03:06:47;100779.38;;;8.53;49.68
26823;BME280;14852;51.910;8.878;2023-05-19T03:09:13;100781.13;;;8.53;49.88
26823;BME280;14852;51.910;8.878;2023-05-19T03:11:39;100791.56;;;8.50;50.00
26823;BME280;14852;51.910;8.878;2023-05-19T03:14:06;100780.44;;;8.46;50.11
26823;BME280;14852;51.910;8.878;2023-05-19T03:16:34;100790.94;;;8.42;50.25
26823;BME280;14852;51.910;8.878;2023-05-19T03:19:00;100787.56;;;8.38;50.42
26823;BME280;14852;51.910;8.878;2023-05-19T03:21:26;100785.78;;;8.40;50.30
26823;BME280;14852;51.910;8.878;2023-05-19T03:23:52;100786.59;;;8.42;50.14
26823;BME280;14852;51.910;8.878;2023-05-19T03:26:19;100783.25;;;8.39;50.33
26823;BME280;14852;51.910;8.878;2023-05-19T03:28:45;100775.53;;;8.35;50.16
26823;BME280;14852;51.910;8.878;2023-05-19T03:31:11;100784.25;;;8.33;50.47
26823;BME280;14852;51.910;8.878;2023-05-19T03:33:37;100781.72;;;8.30;50.26
26823;BME280;14852;51.910;8.878;2023-05-19T03:36:04;100780.94;;;8.26;50.58
26823;BME280;14852;51.910;8.878;2023-05-19T03:38:34;100792.19;;;8.25;50.31
26823;BME280;14852;51.910;8.878;2023-05-19T03:41:00;100786.94;;;8.28;50.35
26823;BME280;14852;51.910;8.878;2023-05-19T03:43:26;100780.06;;;8.27;50.49
26823;BME280;14852;51.910;8.878;2023-05-19T03:45:59;100779.97;;;8.30;50.23
26823;BME280;14852;51.910;8.878;2023-05-19T03:48:49;100791.16;;;8.31;50.40
26823;BME280;14852;51.910;8.878;2023-05-19T03:51:15;100787.78;;;8.29;50.30
26823;BME280;14852;51.910;8.878;2023-05-19T03:53:41;100785.19;;;8.29;50.59
26823;BME280;14852;51.910;8.878;2023-05-19T03:56:08;100785.09;;;8.33;50.43
26823;BME280;14852;51.910;8.878;2023-05-19T03:58:38;100790.13;;;8.40;50.57
26823;BME280;14852;51.910;8.878;2023-05-19T04:01:08;100791.63;;;8.47;50.24
26823;BME280;14852;51.910;8.878;2023-05-19T04:03:33;100783.78;;;8.50;50.08
26823;BME280;14852;51.910;8.878;2023-05-19T04:06:00;100789.69;;;8.55;50.01
26823;BME280;14852;51.910;8.878;2023-05-19T04:08:26;100780.94;;;8.59;50.16
26823;BME280;14852;51.910;8.878;2023-05-19T04:10:52;100787.75;;;8.63;50.27
26823;BME280;14852;51.910;8.878;2023-05-19T04:13:18;100785.00;;;8.67;50.27
26823;BME280;14852;51.910;8.878;2023-05-19T04:15:43;100791.75;;;8.75;49.94
26823;BME280;14852;51.910;8.878;2023-05-19T04:18:09;100798.31;;;8.86;50.02
26823;BME280;14852;51.910;8.878;2023-05-19T04:20:35;100797.06;;;8.99;49.80
26823;BME280;14852;51.910;8.878;2023-05-19T04:23:02;100796.84;;;9.07;49.65
26823;BME280;14852;51.910;8.878;2023-05-19T04:25:28;100795.69;;;9.16;49.67
26823;BME280;14852;51.910;8.878;2023-05-19T04:27:54;100797.16;;;9.24;49.39
26823;BME280;14852;51.910;8.878;2023-05-19T04:30:23;100799.66;;;9.27;49.60
26823;BME280;14852;51.910;8.878;2023-05-19T04:32:49;100794.28;;;9.61;49.63
26823;BME280;14852;51.910;8.878;2023-05-19T04:35:15;100795.97;;;10.65;47.43
26823;BME280;14852;51.910;8.878;2023-05-19T04:37:45;100792.97;;;11.87;45.50
26823;BME280;14852;51.910;8.878;2023-05-19T04:40:13;100785.97;;;13.06;43.29
26823;BME280;14852;51.910;8.878;2023-05-19T04:42:40;100786.66;;;14.18;41.32
26823;BME280;14852;51.910;8.878;2023-05-19T04:45:08;100780.16;;;15.08;39.96
26823;BME280;14852;51.910;8.878;2023-05-19T04:47:39;100783.81;;;15.83;39.11
26823;BME280;14852;51.910;8.878;2023-05-19T04:50:06;100775.59;;;16.33;38.95
26823;BME280;14852;51.910;8.878;2023-05-19T04:52:33;100765.88;;;16.78;38.12
26823;BME280;14852;51.910;8.878;2023-05-19T04:55:03;100772.47;;;17.26;38.01
26823;BME280;14852;51.910;8.878;2023-05-19T04:57:29;100774.13;;;17.68;37.70
26823;BME280;14852;51.910;8.878;2023-05-19T04:59:55;100773.59;;;18.15;37.59
26823;BME280;14852;51.910;8.878;2023-05-19T05:02:28;100768.38;;;18.66;37.16
26823;BME280;14852;51.910;8.878;2023-05-19T05:04:53;100766.06;;;19.10;36.61
26823;BME280;14852;51.910;8.878;2023-05-19T05:07:22;100765.16;;;19.59;35.33
26823;BME280;14852;51.910;8.878;2023-05-19T05:09:50;100769.06;;;19.77;35.51
26823;BME280;14852;51.910;8.878;2023-05-19T05:12:17;100755.84;;;20.12;34.97
26823;BME280;14852;51.910;8.878;2023-05-19T05:14:45;100754.84;;;20.48;35.13
26823;BME280;14852;51.910;8.878;2023-05-19T05:17:11;100755.88;;;21.02;34.35
26823;BME280;14852;51.910;8.878;2023-05-19T05:19:38;100748.22;;;21.53;33.51
26823;BME280;14852;51.910;8.878;2023-05-19T05:22:05;100742.06;;;21.84;33.65
26823;BME280;14852;51.910;8.878;2023-05-19T05:24:33;100745.78;;;22.14;33.39
26823;BME280;14852;51.910;8.878;2023-05-19T05:27:02;100744.97;;;22.53;33.12
26823;BME280;14852;51.910;8.878;2023-05-19T05:29:38;100745.34;;;23.09;32.86
26823;BME280;14852;51.910;8.878;2023-05-19T05:32:06;100749.34;;;23.63;31.88
26823;BME280;14852;51.910;8.878;2023-05-19T05:34:32;100739.91;;;24.17;31.50
26823;BME280;14852;51.910;8.878;2023-05-19T05:36:58;100731.38;;;24.60;31.23
26823;BME280;14852;51.910;8.878;2023-05-19T05:39:24;100739.78;;;24.93;30.50
26823;BME280;14852;51.910;8.878;2023-05-19T05:41:50;100728.63;;;25.07;31.07
26823;BME280;14852;51.910;8.878;2023-05-19T05:44:16;100727.69;;;25.25;30.83
26823;BME280;14852;51.910;8.878;2023-05-19T05:46:43;100725.09;;;25.51;30.79
26823;BME280;14852;51.910;8.878;2023-05-19T05:49:10;100725.16;;;25.77;30.39
26823;BME280;14852;51.910;8.878;2023-05-19T05:51:39;100725.81;;;25.97;29.79
26823;BME280;14852;51.910;8.878;2023-05-19T05:54:07;100725.47;;;26.18;29.79
26823;BME280;14852;51.910;8.878;2023-05-19T05:56:39;100724.13;;;26.40;29.83
26823;BME280;14852;51.910;8.878;2023-05-19T05:59:07;100722.72;;;26.61;29.39
26823;BME280;14852;51.910;8.878;2023-05-19T06:01:33;100730.69;;;26.95;29.39
26823;BME280;14852;51.910;8.878;2023-05-19T06:04:00;100722.25;;;27.16;28.69
26823;BME280;14852;51.910;8.878;2023-05-19T06:06:26;100720.75;;;27.30;28.53
26823;BME280;14852;51.910;8.878;2023-05-19T06:08:52;100733.16;;;27.55;28.45
26823;BME280;14852;51.910;8.878;2023-05-19T06:11:18;100723.16;;;27.90;28.68
26823;BME280;14852;51.910;8.878;2023-05-19T06:13:44;100721.78;;;28.18;27.51
26823;BME280;14852;51.910;8.878;2023-05-19T06:16:18;100715.13;;;28.61;27.39
26823;BME280;14852;51.910;8.878;2023-05-19T06:18:46;100721.94;;;28.80;27.07
26823;BME280;14852;51.910;8.878;2023-05-19T06:21:12;100727.31;;;29.03;26.83
26823;BME280;14852;51.910;8.878;2023-05-19T06:23:40;100716.75;;;29.32;26.82
26823;BME280;14852;51.910;8.878;2023-05-19T06:26:08;100725.75;;;29.62;26.00
26823;BME280;14852;51.910;8.878;2023-05-19T06:28:33;100721.13;;;29.94;25.76
26823;BME280;14852;51.910;8.878;2023-05-19T06:31:00;100711.56;;;30.14;25.17
26823;BME280;14852;51.910;8.878;2023-05-19T06:33:38;100717.75;;;30.29;25.13
26823;BME280;14852;51.910;8.878;2023-05-19T06:36:04;100721.09;;;30.16;25.60
26823;BME280;14852;51.910;8.878;2023-05-19T06:38:30;100711.28;;;30.23;25.46
26823;BME280;14852;51.910;8.878;2023-05-19T06:40:57;100706.78;;;30.53;25.32
26823;BME280;14852;51.910;8.878;2023-05-19T06:43:22;100698.16;;;30.58;24.61
26823;BME280;14852;51.910;8.878;2023-05-19T06:45:52;100711.34;;;30.89;24.79
26823;BME280;14852;51.910;8.878;2023-05-19T06:48:18;100711.03;;;30.99;24.85
26823;BME280;14852;51.910;8.878;2023-05-19T06:50:44;100711.84;;;31.35;23.95
26823;BME280;14852;51.910;8.878;2023-05-19T06:53:11;100704.50;;;31.65;23.61
26823;BME280;14852;51.910;8.878;2023-05-19T06:55:37;100706.41;;;31.71;23.43
26823;BME280;14852;51.910;8.878;2023-05-19T06:58:03;100698.69;;;32.17;23.28
26823;BME280;14852;51.910;8.878;2023-05-19T07:00:29;100694.59;;;32.62;22.73
26823;BME280;14852;51.910;8.878;2023-05-19T07:02:55;100700.00;;;32.28;22.55
26823;BME280;14852;51.910;8.878;2023-05-19T07:05:21;100698.72;;;32.24;22.38
26823;BME280;14852;51.910;8.878;2023-05-19T07:07:51;100693.22;;;32.38;22.56
26823;BME280;14852;51.910;8.878;2023-05-19T07:10:21;100689.50;;;32.81;21.82
26823;BME280;14852;51.910;8.878;2023-05-19T07:12:47;100686.47;;;33.10;21.44
26823;BME280;14852;51.910;8.878;2023-05-19T07:15:15;100688.41;;;33.56;21.10
26823;BME280;14852;51.910;8.878;2023-05-19T07:17:42;100686.94;;;33.86;20.56
26823;BME280;14852;51.910;8.878;2023-05-19T07:20:08;100686.09;;;33.26;20.96
26823;BME280;14852;51.910;8.878;2023-05-19T07:22:35;100679.81;;;32.99;21.07
26823;BME280;14852;51.910;8.878;2023-05-19T07:25:01;100676.66;;;32.89;21.30
26823;BME280;14852;51.910;8.878;2023-05-19T07:27:28;100669.72;;;33.28;20.62
26823;BME280;14852;51.910;8.878;2023-05-19T07:29:54;100662.47;;;33.74;20.25
26823;BME280;14852;51.910;8.878;2023-05-19T07:32:19;100662.59;;;34.19;20.38
26823;BME280;14852;51.910;8.878;2023-05-19T07:34:45;100666.91;;;34.40;19.90
26823;BME280;14852;51.910;8.878;2023-05-19T07:37:11;100664.28;;;34.71;19.67
26823;BME280;14852;51.910;8.878;2023-05-19T07:39:37;100657.78;;;34.85;19.02
26823;BME280;14852;51.910;8.878;2023-05-19T07:42:03;100659.09;;;34.70;19.52
26823;BME280;14852;51.910;8.878;2023-05-19T07:44:28;100663.44;;;34.84;19.37
26823;BME280;14852;51.910;8.878;2023-05-19T07:46:56;100654.88;;;34.42;19.86
26823;BME280;14852;51.910;8.878;2023-05-19T07:49:22;100655.44;;;34.51;19.46
26823;BME280;14852;51.910;8.878;2023-05-19T07:51:48;100657.00;;;34.78;18.88
26823;BME280;14852;51.910;8.878;2023-05-19T07:54:14;100660.53;;;35.10;18.57
26823;BME280;14852;51.910;8.878;2023-05-19T07:56:40;100655.97;;;35.11;18.56
26823;BME280;14852;51.910;8.878;2023-05-19T07:59:06;100653.50;;;34.65;18.53
26823;BME280;14852;51.910;8.878;2023-05-19T08:01:32;100657.59;;;34.36;18.73
26823;BME280;14852;51.910;8.878;2023-05-19T08:03:58;100661.19;;;34.10;18.75
26823;BME280;14852;51.910;8.878;2023-05-19T08:06:24;100659.56;;;34.02;18.77
26823;BME280;14852;51.910;8.878;2023-05-19T08:08:50;100661.03;;;33.59;18.80
26823;BME280;14852;51.910;8.878;2023-05-19T08:11:16;100659.13;;;33.99;18.55
26823;BME280;14852;51.910;8.878;2023-05-19T08:13:42;100646.13;;;34.47;18.09
26823;BME280;14852;51.910;8.878;2023-05-19T08:16:08;100651.97;;;34.44;18.83
26823;BME280;14852;51.910;8.878;2023-05-19T08:18:34;100649.41;;;33.91;18.75
26823;BME280;14852;51.910;8.878;2023-05-19T08:20:59;100647.56;;;33.26;19.11
26823;BME280;14852;51.910;8.878;2023-05-19T08:23:25;100651.56;;;32.21;20.15
26823;BME280;14852;51.910;8.878;2023-05-19T08:25:51;100656.34;;;31.42;21.36
26823;BME280;14852;51.910;8.878;2023-05-19T08:28:17;100657.56;;;30.02;21.62
26823;BME280;14852;51.910;8.878;2023-05-19T08:30:43;100659.50;;;28.88;23.34
26823;BME280;14852;51.910;8.878;2023-05-19T08:33:08;100648.84;;;28.49;24.38
26823;BME280;14852;51.910;8.878;2023-05-19T08:35:34;100650.13;;;28.05;24.66
26823;BME280;14852;51.910;8.878;2023-05-19T08:38:00;100660.03;;;27.48;24.58
26823;BME280;14852;51.910;8.878;2023-05-19T08:40:27;100662.19;;;26.54;25.69
26823;BME280;14852;51.910;8.878;2023-05-19T08:42:56;100648.41;;;25.98;26.02
26823;BME280;14852;51.910;8.878;2023-05-19T08:45:21;100657.13;;;25.57;26.44
26823;BME280;14852;51.910;8.878;2023-05-19T08:47:48;100652.81;;;25.20;26.99
26823;BME280;14852;51.910;8.878;2023-05-19T08:50:29;100653.56;;;24.95;27.83
26823;BME280;14852;51.910;8.878;2023-05-19T08:53:03;100641.06;;;24.78;28.23
26823;BME280;14852;51.910;8.878;2023-05-19T08:58:37;100647.69;;;24.09;27.24
26823;BME280;14852;51.910;8.878;2023-05-19T09:01:04;100649.31;;;23.83;27.90
26823;BME280;14852;51.910;8.878;2023-05-19T09:03:33;100642.06;;;23.75;27.59
26823;BME280;14852;51.910;8.878;2023-05-19T09:06:05;100638.19;;;23.60;27.64
26823;BME280;14852;51.910;8.878;2023-05-19T09:08:32;100627.38;;;23.81;27.64
26823;BME280;14852;51.910;8.878;2023-05-19T09:10:58;100636.47;;;24.25;27.71
26823;BME280;14852;51.910;8.878;2023-05-19T09:13:24;100630.78;;;24.10;27.32
26823;BME280;14852;51.910;8.878;2023-05-19T09:16:02;100631.69;;;23.82;27.63
26823;BME280;14852;51.910;8.878;2023-05-19T09:18:28;100633.00;;;23.59;26.68
26823;BME280;14852;51.910;8.878;2023-05-19T09:20:59;100628.41;;;23.32;27.59
26823;BME280;14852;51.910;8.878;2023-05-19T09:23:31;100635.84;;;23.19;27.17
26823;BME280;14852;51.910;8.878;2023-05-19T09:26:04;100630.38;;;22.91;27.14
26823;BME280;14852;51.910;8.878;2023-05-19T09:28:35;100620.88;;;22.79;27.25
26823;BME280;14852;51.910;8.878;2023-05-19T09:31:08;100623.59;;;22.58;27.87
26823;BME280;14852;51.910;8.878;2023-05-19T09:36:02;100626.16;;;22.39;28.02
26823;BME280;14852;51.910;8.878;2023-05-19T09:38:30;100606.13;;;22.46;28.15
26823;BME280;14852;51.910;8.878;2023-05-19T09:40:58;100617.31;;;22.59;27.53
26823;BME280;14852;51.910;8.878;2023-05-19T09:43:28;100618.22;;;22.89;27.68
26823;BME280;14852;51.910;8.878;2023-05-19T09:46:09;100620.72;;;22.90;27.01
26823;BME280;14852;51.910;8.878;2023-05-19T09:48:38;100614.47;;;22.82;27.16
26823;BME280;14852;51.910;8.878;2023-05-19T09:51:06;100619.69;;;22.62;26.91
26823;BME280;14852;51.910;8.878;2023-05-19T09:53:33;100620.88;;;22.79;27.35
26823;BME280;14852;51.910;8.878;2023-05-19T09:56:01;100619.75;;;22.91;26.83
26823;BME280;14852;51.910;8.878;2023-05-19T09:58:33;100619.75;;;22.91;27.31
26823;BME280;14852;51.910;8.878;2023-05-19T10:01:03;100617.25;;;22.99;27.07
26823;BME280;14852;51.910;8.878;2023-05-19T10:03:29;100609.16;;;22.82;27.64
26823;BME280;14852;51.910;8.878;2023-05-19T10:05:57;100612.22;;;22.87;27.91
26823;BME280;14852;51.910;8.878;2023-05-19T10:08:25;100603.28;;;22.88;27.97
26823;BME280;14852;51.910;8.878;2023-05-19T10:10:52;100594.78;;;23.13;27.77
26823;BME280;14852;51.910;8.878;2023-05-19T10:13:18;100594.91;;;23.60;27.16
26823;BME280;14852;51.910;8.878;2023-05-19T10:15:46;100595.66;;;23.79;26.48
26823;BME280;14852;51.910;8.878;2023-05-19T10:18:14;100592.59;;;23.84;26.74
26823;BME280;14852;51.910;8.878;2023-05-19T10:20:43;100584.88;;;23.91;26.37
26823;BME280;14852;51.910;8.878;2023-05-19T10:23:09;100581.47;;;24.08;26.43
26823;BME280;14852;51.910;8.878;2023-05-19T10:25:35;100578.53;;;24.01;26.61
26823;BME280;14852;51.910;8.878;2023-05-19T10:28:12;100578.59;;;23.92;26.41
26823;BME280;14852;51.910;8.878;2023-05-19T10:30:40;100581.69;;;23.87;26.38
26823;BME280;14852;51.910;8.878;2023-05-19T10:33:12;100568.44;;;23.77;26.46
26823;BME280;14852;51.910;8.878;2023-05-19T10:36:11;100579.88;;;23.78;26.73
26823;BME280;14852;51.910;8.878;2023-05-19T10:38:59;100578.09;;;23.69;26.64
26823;BME280;14852;51.910;8.878;2023-05-19T10:41:52;100584.97;;;23.62;26.15
26823;BME280;14852;51.910;8.878;2023-05-19T10:47:08;100574.25;;;23.54;26.48
26823;BME280;14852;51.910;8.878;2023-05-19T10:49:36;100577.59;;;23.36;26.27
26823;BME280;14852;51.910;8.878;2023-05-19T10:52:03;100573.28;;;23.26;26.44
26823;BME280;14852;51.910;8.878;2023-05-19T10:54:39;100576.94;;;23.15;26.85
26823;BME280;14852;51.910;8.878;2023-05-19T10:57:05;100572.75;;;23.03;26.72
26823;BME280;14852;51.910;8.878;2023-05-19T10:59:35;100581.28;;;23.06;26.78
26823;BME280;14852;51.910;8.878;2023-05-19T11:02:06;100580.53;;;23.24;26.55
26823;BME280;14852;51.910;8.878;2023-05-19T11:04:47;100578.03;;;23.22;26.27
26823;BME280;14852;51.910;8.878;2023-05-19T11:07:20;100576.66;;;23.08;25.83
26823;BME280;14852;51.910;8.878;2023-05-19T11:09:51;100580.72;;;23.03;25.64
26823;BME280;14852;51.910;8.878;2023-05-19T11:12:21;100590.19;;;23.15;25.70
26823;BME280;14852;51.910;8.878;2023-05-19T11:14:50;100579.28;;;23.08;25.72
26823;BME280;14852;51.910;8.878;2023-05-19T11:17:18;100580.31;;;23.07;25.85
26823;BME280;14852;51.910;8.878;2023-05-19T11:19:53;100577.78;;;23.06;26.60
26823;BME280;14852;51.910;8.878;2023-05-19T11:22:23;100566.34;;;23.15;26.42
26823;BME280;14852;51.910;8.878;2023-05-19T11:24:50;100569.81;;;23.25;26.40
26823;BME280;14852;51.910;8.878;2023-05-19T11:29:56;100562.34;;;23.58;26.42
26823;BME280;14852;51.910;8.878;2023-05-19T11:32:32;100557.84;;;23.68;26.74
26823;BME280;14852;51.910;8.878;2023-05-19T11:35:00;100557.25;;;23.83;26.86
26823;BME280;14852;51.910;8.878;2023-05-19T11:37:27;100549.50;;;24.00;26.06
26823;BME280;14852;51.910;8.878;2023-05-19T11:39:57;100555.19;;;24.05;26.33
26823;BME280;14852;51.910;8.878;2023-05-19T11:42:25;100559.50;;;23.78;26.43
26823;BME280;14852;51.910;8.878;2023-05-19T11:44:54;100553.44;;;23.59;26.84
26823;BME280;14852;51.910;8.878;2023-05-19T11:47:20;100548.72;;;23.53;27.17
26823;BME280;14852;51.910;8.878;2023-05-19T11:49:50;100549.38;;;23.55;27.43
26823;BME280;14852;51.910;8.878;2023-05-19T11:52:25;100549.00;;;23.30;26.93
26823;BME280;14852;51.910;8.878;2023-05-19T11:54:52;100554.19;;;23.03;26.96
26823;BME280;14852;51.910;8.878;2023-05-19T11:57:18;100550.56;;;23.14;27.41
26823;BME280;14852;51.910;8.878;2023-05-19T11:59:44;100540.75;;;23.33;27.14
26823;BME280;14852;51.910;8.878;2023-05-19T12:02:22;100540.34;;;23.38;26.54
26823;BME280;14852;51.910;8.878;2023-05-19T12:04:53;100546.38;;;23.30;26.16
26823;BME280;14852;51.910;8.878;2023-05-19T12:07:23;100538.09;;;23.33;26.73
26823;BME280;14852;51.910;8.878;2023-05-19T12:09:50;100529.03;;;23.36;27.01
26823;BME280;14852;51.910;8.878;2023-05-19T12:12:19;100538.09;;;23.53;27.33
26823;BME280;14852;51.910;8.878;2023-05-19T12:14:48;100544.06;;;23.55;27.24
26823;BME280;14852;51.910;8.878;2023-05-19T12:17:16;100544.38;;;23.32;26.89
26823;BME280;14852;51.910;8.878;2023-05-19T12:19:43;100546.34;;;23.21;27.18
26823;BME280;14852;51.910;8.878;2023-05-19T12:22:09;100530.59;;;23.29;27.20
26823;BME280;14852;51.910;8.878;2023-05-19T12:24:36;100533.50;;;23.35;27.06
26823;BME280;14852;51.910;8.878;2023-05-19T12:27:18;100528.00;;;23.46;26.92
26823;BME280;14852;51.910;8.878;2023-05-19T12:29:53;100525.34;;;23.56;26.47
26823;BME280;14852;51.910;8.878;2023-05-19T12:32:26;100518.75;;;23.70;26.35
26823;BME280;14852;51.910;8.878;2023-05-19T12:34:55;100519.50;;;23.90;26.51
26823;BME280;14852;51.910;8.878;2023-05-19T12:37:21;100524.81;;;23.90;26.30
26823;BME280;14852;51.910;8.878;2023-05-19T12:39:48;100526.44;;;23.73;26.25
26823;BME280;14852;51.910;8.878;2023-05-19T12:42:15;100526.47;;;23.44;26.19
26823;BME280;14852;51.910;8.878;2023-05-19T12:44:49;100524.31;;;23.10;26.42
26823;BME280;14852;51.910;8.878;2023-05-19T12:47:19;100523.50;;;23.00;26.86
26823;BME280;14852;51.910;8.878;2023-05-19T12:50:05;100504.22;;;23.08;26.73
26823;BME280;14852;51.910;8.878;2023-05-19T12:52:41;100505.94;;;22.99;27.19
26823;BME280;14852;51.910;8.878;2023-05-19T12:55:08;100528.25;;;22.97;27.66
26823;BME280;14852;51.910;8.878;2023-05-19T12:57:37;100524.91;;;22.85;27.76
26823;BME280;14852;51.910;8.878;2023-05-19T13:00:13;100522.69;;;22.81;27.96
26823;BME280;14852;51.910;8.878;2023-05-19T13:05:37;100515.25;;;22.65;27.82
26823;BME280;14852;51.910;8.878;2023-05-19T13:08:09;100509.72;;;22.78;27.91
26823;BME280;14852;51.910;8.878;2023-05-19T13:10:36;100514.31;;;22.95;27.71
26823;BME280;14852;51.910;8.878;2023-05-19T13:13:03;100508.69;;;23.17;27.67
26823;BME280;14852;51.910;8.878;2023-05-19T13:15:31;100513.84;;;23.28;27.46
26823;BME280;14852;51.910;8.878;2023-05-19T13:18:04;100509.94;;;23.23;27.19
26823;BME280;14852;51.910;8.878;2023-05-19T13:20:31;100510.38;;;23.18;27.64
26823;BME280;14852;51.910;8.878;2023-05-19T13:22:58;100523.63;;;23.18;27.50
26823;BME280;14852;51.910;8.878;2023-05-19T13:25:26;100506.75;;;23.09;27.69